Time;durP1;ratioP1;P1;durP2;ratioP2;P2;SDS_P1;SDS_P2;PMS_P1;PMS_P2;Temp;Humidity;BMP_temperature;BMP_pressure;BME280_temperature;BME280_humidity;BME280_pressure;Samples;Min_cycle;Max_cycle;Signal;HPM_P1;HPM_P2
2022/06/18 00:00:12;;;;;;;5.35;2.75;;;;;;;23.64;44.15;100144.09;6244168;23;20030;-79
2022/06/18 00:02:38;;;;;;;6.27;2.00;;;;;;;23.64;43.87;100143.28;6244102;23;20081;-78
2022/06/18 00:05:03;;;;;;;5.18;2.58;;;;;;;23.62;44.23;100148.38;6243225;23;20303;-79
2022/06/18 00:07:29;;;;;;;8.25;2.58;;;;;;;23.66;44.28;100136.22;6243963;23;20008;-79
2022/06/18 00:10:01;;;;;;;5.85;2.08;;;;;;;23.54;44.44;100130.63;6244090;23;20302;-78
2022/06/18 00:15:34;;;;;;;8.20;3.13;;;;;;;23.49;44.46;100128.06;6243246;23;20039;-77
2022/06/18 00:18:00;;;;;;;7.07;2.20;;;;;;;23.49;44.67;100119.72;6244209;23;20000;-79
2022/06/18 00:20:30;;;;;;;4.70;2.35;;;;;;;23.43;45.09;100124.66;6243636;23;20008;-80
2022/06/18 00:22:59;;;;;;;3.95;2.40;;;;;;;23.49;44.74;100123.31;6217109;23;20019;-80
2022/06/18 00:25:35;;;;;;;8.10;2.45;;;;;;;23.49;44.92;100117.75;6242971;23;20006;-80
2022/06/18 00:28:16;;;;;;;8.57;2.80;;;;;;;23.51;44.73;100120.19;6216735;23;20008;-79
2022/06/18 00:30:42;;;;;;;5.95;2.20;;;;;;;23.46;44.97;100118.44;6242647;23;20008;-79
2022/06/18 00:33:08;;;;;;;4.78;2.30;;;;;;;23.43;45.25;100119.91;6244073;23;20084;-77
2022/06/18 00:35:33;;;;;;;7.03;3.38;;;;;;;23.43;45.03;100119.91;6242984;23;20075;-77
2022/06/18 00:38:01;;;;;;;6.70;2.60;;;;;;;23.28;45.20;100112.22;6244555;23;20012;-78
2022/06/18 00:40:32;;;;;;;5.95;3.15;;;;;;;23.37;45.02;100114.91;6243596;23;20410;-80
2022/06/18 00:43:01;;;;;;;5.25;2.95;;;;;;;23.32;45.35;100105.63;6243949;23;20012;-78
2022/06/18 00:45:30;;;;;;;6.60;2.55;;;;;;;23.29;45.51;100108.31;6215902;23;20008;-80
2022/06/18 00:48:07;;;;;;;5.00;3.67;;;;;;;23.32;45.35;100108.41;6244095;23;20018;-78
2022/06/18 00:50:48;;;;;;;10.23;3.35;;;;;;;23.30;45.65;100104.34;6243434;23;20039;-77
2022/06/18 00:53:23;;;;;;;4.90;2.88;;;;;;;23.23;45.79;100106.88;6243766;23;20012;-78
2022/06/18 00:56:00;;;;;;;7.15;3.13;;;;;;;23.14;46.13;100102.22;6242296;23;20000;-77
2022/06/18 00:58:40;;;;;;;6.88;2.85;;;;;;;23.13;46.58;100091.44;6243514;23;20070;-80
2022/06/18 01:01:22;;;;;;;7.15;2.92;;;;;;;23.17;46.27;100095.97;6244212;23;20004;-79
2022/06/18 01:03:49;;;;;;;3.20;2.22;;;;;;;23.17;46.50;100098.75;6243664;23;20040;-78
2022/06/18 01:06:19;;;;;;;4.45;2.85;;;;;;;23.11;46.61;100102.91;6242722;23;20001;-78
2022/06/18 01:08:46;;;;;;;5.40;2.33;;;;;;;23.13;46.33;100100.59;6242922;23;20016;-78
2022/06/18 01:11:20;;;;;;;5.32;2.60;;;;;;;23.15;46.38;100089.13;6216522;23;20079;-78
2022/06/18 01:13:47;;;;;;;4.72;2.85;;;;;;;23.13;46.59;100095.03;6243554;23;20042;-78
2022/06/18 01:16:13;;;;;;;3.70;2.20;;;;;;;23.09;46.91;100094.91;6242229;23;20321;-79
2022/06/18 01:18:39;;;;;;;10.77;3.90;;;;;;;23.06;46.49;100094.78;6243429;23;20042;-78
2022/06/18 01:21:20;;;;;;;17.42;3.83;;;;;;;23.05;46.49;100082.03;6243572;23;20091;-79
2022/06/18 01:23:51;;;;;;;6.85;2.38;;;;;;;23.07;46.52;100074.97;6243591;23;20089;-80
2022/06/18 01:26:18;;;;;;;8.85;2.15;;;;;;;23.02;46.67;100077.16;6241375;23;20008;-79
2022/06/18 01:28:43;;;;;;;3.05;2.08;;;;;;;23.01;46.68;100075.53;6241986;23;20591;-80
2022/06/18 01:31:09;;;;;;;3.77;2.40;;;;;;;23.05;46.62;100073.69;6243425;23;20039;-78
2022/06/18 01:33:36;;;;;;;7.10;2.75;;;;;;;23.03;46.35;100073.22;6243385;23;20295;-79
2022/06/18 01:36:05;;;;;;;4.05;2.10;;;;;;;23.03;46.41;100064.88;6242175;23;20000;-78
2022/06/18 01:38:33;;;;;;;6.57;2.55;;;;;;;23.04;46.67;100074.84;6242936;23;20327;-79
2022/06/18 01:43:58;;;;;;;8.20;2.78;;;;;;;23.11;46.59;100066.75;6241343;23;20039;-79
2022/06/18 01:46:26;;;;;;;6.53;2.40;;;;;;;23.08;46.13;100068.28;6241723;23;20035;-80
2022/06/18 01:48:54;;;;;;;5.45;2.00;;;;;;;23.10;46.36;100062.38;6243313;23;20130;-78
2022/06/18 01:51:26;;;;;;;5.13;2.47;;;;;;;23.08;46.49;100070.25;6243261;23;20015;-79
2022/06/18 01:53:58;;;;;;;3.35;2.00;;;;;;;23.02;46.39;100058.53;6242679;23;20008;-78
2022/06/18 01:56:29;;;;;;;6.47;2.20;;;;;;;23.01;46.50;100064.41;6241744;23;20016;-79
2022/06/18 01:59:00;;;;;;;6.80;2.30;;;;;;;22.96;46.64;100060.69;6212697;23;20067;-79
2022/06/18 02:01:31;;;;;;;5.57;2.03;;;;;;;22.97;46.70;100062.31;6212865;23;20087;-79
2022/06/18 02:03:59;;;;;;;7.50;2.70;;;;;;;23.01;46.74;100065.22;6212352;23;19996;-79
2022/06/18 02:06:25;;;;;;;4.30;2.13;;;;;;;23.00;46.59;100057.22;6211156;23;20312;-78
2022/06/18 02:08:51;;;;;;;4.63;2.63;;;;;;;23.01;46.33;100053.28;6212508;23;20070;-78
2022/06/18 02:11:17;;;;;;;8.80;2.97;;;;;;;23.05;46.79;100051.44;6211839;23;20410;-80
2022/06/18 02:14:12;;;;;;;4.00;2.00;;;;;;;23.06;46.45;100045.56;6212554;23;20001;-78
2022/06/18 02:16:44;;;;;;;5.78;2.42;;;;;;;23.08;47.02;100046.03;6207976;23;20056;-78
2022/06/18 02:19:10;;;;;;;3.58;1.95;;;;;;;22.97;46.70;100053.97;6212758;23;20121;-78
2022/06/18 02:21:41;;;;;;;4.57;2.25;;;;;;;23.03;46.55;100056.53;6212013;23;19996;-79
2022/06/18 02:24:07;;;;;;;3.35;1.92;;;;;;;22.94;46.88;100054.66;6212167;23;20000;-78
2022/06/18 02:26:33;;;;;;;3.53;1.90;;;;;;;22.95;46.76;100044.34;6210920;23;20303;-79
2022/06/18 02:28:59;;;;;;;6.45;3.10;;;;;;;22.98;46.62;100044.47;6212047;23;20001;-79
2022/06/18 02:31:28;;;;;;;6.03;2.63;;;;;;;23.01;46.67;100051.31;6212219;23;20016;-80
2022/06/18 02:34:01;;;;;;;4.60;2.75;;;;;;;23.04;48.02;100047.06;6212514;23;20040;-79
2022/06/18 02:36:35;;;;;;;7.82;2.03;;;;;;;23.01;47.61;100039.38;6211295;23;19997;-78
2022/06/18 02:39:06;;;;;;;5.05;2.75;;;;;;;22.86;49.48;100036.13;6212553;23;20312;-78
2022/06/18 02:41:32;;;;;;;6.90;2.78;;;;;;;22.74;48.29;100048.81;6211911;23;20016;-79
2022/06/18 02:43:58;;;;;;;4.97;2.40;;;;;;;22.75;48.39;100041.28;6212342;23;20005;-79
2022/06/18 02:46:23;;;;;;;8.50;2.75;;;;;;;22.76;49.76;100053.22;6211130;23;20705;-78
2022/06/18 02:48:49;;;;;;;4.22;2.33;;;;;;;22.54;50.82;100050.41;6212190;23;20070;-80
2022/06/18 02:51:14;;;;;;;8.43;2.67;;;;;;;22.39;51.50;100046.31;6185794;23;20004;-78
2022/06/18 02:53:40;;;;;;;5.75;2.30;;;;;;;22.33;50.67;100050.44;6211874;23;20502;-79
2022/06/18 02:56:07;;;;;;;6.70;2.30;;;;;;;22.18;51.83;100052.66;6184451;23;20031;-78
2022/06/18 02:58:38;;;;;;;4.03;2.00;;;;;;;22.12;51.90;100048.44;6238999;23;20426;-78
2022/06/18 03:01:11;;;;;;;5.68;2.47;;;;;;;22.03;53.55;100049.31;6242326;23;20004;-78
2022/06/18 03:03:41;;;;;;;6.70;3.22;;;;;;;21.98;52.38;100046.75;6241990;23;20001;-79
2022/06/18 03:06:09;;;;;;;4.68;1.98;;;;;;;22.06;51.45;100047.03;6241584;23;20011;-78
2022/06/18 03:08:35;;;;;;;4.32;2.20;;;;;;;22.12;52.21;100049.28;6242788;23;20004;-78
2022/06/18 03:13:45;;;;;;;6.60;2.58;;;;;;;22.17;50.43;100051.03;6242528;23;20019;-78
2022/06/18 03:16:13;;;;;;;7.18;2.60;;;;;;;22.30;50.18;100056.66;6241259;23;20150;-78
2022/06/18 03:18:41;;;;;;;7.43;2.65;;;;;;;22.31;51.32;100055.53;6242390;23;20035;-79
2022/06/18 03:21:25;;;;;;;6.35;2.72;;;;;;;22.28;50.65;100062.56;6242399;23;20011;-79
2022/06/18 03:23:50;;;;;;;3.83;2.22;;;;;;;22.29;51.52;100058.63;6240871;23;20004;-79
2022/06/18 03:26:17;;;;;;;5.72;2.75;;;;;;;22.23;51.39;100066.34;6240474;23;20074;-78
2022/06/18 03:28:43;;;;;;;5.20;2.35;;;;;;;22.27;51.21;100064.50;6241797;23;20043;-78
2022/06/18 03:31:09;;;;;;;5.13;2.70;;;;;;;22.30;52.37;100070.53;6242306;23;20008;-78
2022/06/18 03:33:35;;;;;;;9.38;2.78;;;;;;;22.30;51.80;100068.59;6242298;23;20084;-78
2022/06/18 03:36:02;;;;;;;4.68;2.38;;;;;;;22.33;50.28;100067.09;6241194;23;20079;-78
2022/06/18 03:38:28;;;;;;;7.65;2.97;;;;;;;22.33;52.12;100072.66;6242657;23;20007;-78
2022/06/18 03:40:54;;;;;;;8.80;2.92;;;;;;;22.36;51.25;100069.19;6241586;23;20083;-79
2022/06/18 03:43:24;;;;;;;7.15;2.40;;;;;;;22.34;51.18;100066.75;6242558;23;20008;-78
2022/06/18 03:45:53;;;;;;;5.13;2.00;;;;;;;22.35;50.13;100062.03;6241507;23;20015;-79
2022/06/18 03:48:41;;;;;;;6.07;3.30;;;;;;;22.48;50.25;100063.72;6241943;23;20000;-79
2022/06/18 03:51:07;;;;;;;4.00;2.25;;;;;;;22.50;50.15;100066.97;6242277;23;20059;-78
2022/06/18 03:53:32;;;;;;;5.60;2.33;;;;;;;22.45;49.39;100072.72;6242002;23;20004;-79
2022/06/18 03:55:57;;;;;;;5.10;3.40;;;;;;;22.48;49.54;100069.25;6241178;23;20008;-79
2022/06/18 03:58:23;;;;;;;8.00;3.83;;;;;;;22.48;50.20;100069.25;6241797;23;20146;-78
2022/06/18 04:00:50;;;;;;;3.58;2.40;;;;;;;22.59;50.01;100064.13;6243782;23;20659;-78
2022/06/18 04:03:16;;;;;;;3.95;2.35;;;;;;;22.61;49.55;100069.31;6243668;23;20004;-78
2022/06/18 04:05:41;;;;;;;4.70;2.30;;;;;;;22.65;49.37;100061.97;6242144;23;20000;-80
2022/06/18 04:08:11;;;;;;;5.10;2.03;;;;;;;22.67;49.13;100056.88;6243770;23;19996;-78
2022/06/18 04:10:36;;;;;;;3.97;2.58;;;;;;;22.74;49.28;100056.31;6217201;23;20099;-79
2022/06/18 04:13:01;;;;;;;6.57;2.77;;;;;;;22.76;49.27;100058.78;6243992;23;20032;-78
2022/06/18 04:15:27;;;;;;;6.93;2.30;;;;;;;22.77;49.41;100060.38;6241860;23;20533;-79
2022/06/18 04:17:52;;;;;;;8.05;2.75;;;;;;;22.77;49.37;100063.16;6242078;23;20297;-79
2022/06/18 04:20:31;;;;;;;7.35;2.47;;;;;;;22.79;49.36;100071.97;6242441;23;20084;-80
2022/06/18 04:22:56;;;;;;;9.10;3.10;;;;;;;22.71;49.56;100068.94;6242309;23;20366;-79
2022/06/18 04:25:22;;;;;;;12.95;3.05;;;;;;;22.67;49.89;100079.13;6240693;23;20040;-79
2022/06/18 04:27:48;;;;;;;7.57;2.63;;;;;;;22.68;49.62;100074.38;6243186;23;20004;-78
2022/06/18 04:30:15;;;;;;;11.57;3.05;;;;;;;22.78;49.69;100067.59;6243717;23;20008;-79
2022/06/18 04:32:41;;;;;;;4.93;2.70;;;;;;;22.73;49.75;100071.38;6217344;23;20074;-78
2022/06/18 04:35:10;;;;;;;5.45;3.00;;;;;;;22.81;49.46;100066.88;6242584;23;20163;-79
2022/06/18 04:37:36;;;;;;;6.45;2.60;;;;;;;22.86;49.52;100070.25;6243885;23;20004;-80
2022/06/18 04:40:02;;;;;;;6.15;2.75;;;;;;;22.88;49.68;100072.72;6243326;23;20529;-78
2022/06/18 04:42:29;;;;;;;7.68;2.90;;;;;;;22.81;49.50;100064.13;6243609;23;20410;-78
2022/06/18 04:44:55;;;;;;;7.30;3.15;;;;;;;22.89;49.74;100063.22;6242642;23;20385;-80
2022/06/18 04:47:20;;;;;;;5.57;2.95;;;;;;;22.89;49.65;100068.78;6243409;23;20080;-79
2022/06/18 04:49:46;;;;;;;5.00;2.47;;;;;;;22.86;49.62;100063.91;6243599;23;20007;-79
2022/06/18 04:52:11;;;;;;;11.93;3.10;;;;;;;22.85;49.97;100062.28;6243604;23;20000;-79
2022/06/18 04:54:37;;;;;;;6.50;2.75;;;;;;;22.88;49.84;100060.78;6243438;23;20095;-78
2022/06/18 04:57:03;;;;;;;8.70;2.90;;;;;;;22.89;49.91;100056.84;6241811;23;20020;-78
2022/06/18 04:59:29;;;;;;;5.80;2.88;;;;;;;22.93;50.02;100058.59;6243486;23;20007;-79
2022/06/18 05:02:07;;;;;;;8.52;3.30;;;;;;;22.97;50.11;100065.09;6243308;23;20004;-78
2022/06/18 05:04:32;;;;;;;5.40;3.15;;;;;;;23.07;49.55;100063.84;6243273;23;20012;-80
2022/06/18 05:06:58;;;;;;;8.38;3.97;;;;;;;23.12;49.72;100060.06;6215649;23;20005;-79
2022/06/18 05:09:23;;;;;;;6.82;2.97;;;;;;;23.13;49.80;100064.44;6242411;23;20031;-79
2022/06/18 05:11:49;;;;;;;6.07;2.67;;;;;;;23.15;50.46;100073.25;6241868;23;20663;-79
2022/06/18 05:14:14;;;;;;;10.82;2.67;;;;;;;23.16;50.58;100066.56;6243256;23;20016;-79
2022/06/18 05:16:41;;;;;;;6.13;2.92;;;;;;;23.18;50.33;100064.25;6242675;23;20603;-80
2022/06/18 05:19:22;;;;;;;5.40;2.70;;;;;;;23.29;49.88;100072.94;6243455;23;20008;-78
2022/06/18 05:21:47;;;;;;;5.35;3.15;;;;;;;23.29;50.00;100072.16;6243531;23;20000;-78
2022/06/18 05:24:12;;;;;;;13.00;3.00;;;;;;;23.29;49.71;100066.59;6242914;23;20004;-78
2022/06/18 05:26:38;;;;;;;5.73;2.63;;;;;;;23.31;49.80;100072.59;6241356;23;20934;-78
2022/06/18 05:29:03;;;;;;;7.70;2.65;;;;;;;23.21;50.22;100060.75;6243138;23;20280;-80
2022/06/18 05:31:28;;;;;;;10.23;3.50;;;;;;;23.25;50.03;100060.09;6243671;23;20008;-79
2022/06/18 05:33:54;;;;;;;11.50;3.23;;;;;;;23.32;50.49;100060.31;6243011;23;20089;-79
2022/06/18 05:36:19;;;;;;;5.10;2.53;;;;;;;23.34;50.16;100066.34;6241127;23;20012;-81
2022/06/18 05:38:45;;;;;;;6.35;3.47;;;;;;;23.31;49.87;100055.91;6215943;23;20023;-79
2022/06/18 05:41:11;;;;;;;8.98;4.25;;;;;;;23.29;50.14;100050.69;6241857;23;20004;-80
2022/06/18 05:43:36;;;;;;;9.07;3.47;;;;;;;23.28;50.33;100046.31;6243009;23;20004;-82
2022/06/18 05:46:04;;;;;;;5.45;2.90;;;;;;;23.39;50.21;100052.22;6241477;23;20519;-80
2022/06/18 05:48:29;;;;;;;4.75;2.45;;;;;;;23.20;51.08;100045.25;6242880;23;20000;-81
2022/06/18 05:50:54;;;;;;;5.43;2.57;;;;;;;23.29;51.35;100053.47;6214477;23;20011;-81
2022/06/18 05:53:20;;;;;;;7.67;3.23;;;;;;;23.40;50.47;100048.28;6241103;23;20024;-81
2022/06/18 05:55:46;;;;;;;8.47;3.40;;;;;;;23.47;50.38;100053.31;6239405;23;20468;-81
2022/06/18 05:58:11;;;;;;;13.48;3.03;;;;;;;23.54;50.30;100047.97;6240487;23;20094;-81
2022/06/18 06:00:36;;;;;;;8.70;2.95;;;;;;;23.54;50.17;100047.16;6240979;23;20011;-80
2022/06/18 06:03:02;;;;;;;4.67;3.10;;;;;;;23.57;50.26;100046.47;6242324;23;20079;-80
2022/06/18 06:05:28;;;;;;;7.97;3.93;;;;;;;23.60;50.39;100044.97;6241115;23;20004;-80
2022/06/18 06:07:53;;;;;;;11.40;3.63;;;;;;;23.52;50.73;100044.72;6242715;23;20213;-79
2022/06/18 06:13:16;;;;;;;8.02;3.25;;;;;;;23.55;50.28;100041.25;6242498;23;20094;-81
2022/06/18 06:15:41;;;;;;;9.30;3.03;;;;;;;23.57;50.40;100040.91;6242052;23;20038;-81
2022/06/18 06:18:10;;;;;;;10.15;3.50;;;;;;;23.68;50.71;100049.59;6243870;23;20004;-81
2022/06/18 06:20:38;;;;;;;4.57;3.22;;;;;;;23.72;50.50;100044.13;6214724;23;20307;-87
2022/06/18 06:23:05;;;;;;;32.95;6.00;;;;;;;23.82;50.62;100052.03;6243018;23;20311;-80
2022/06/18 06:25:31;;;;;;;13.63;3.90;;;;;;;23.78;50.82;100051.09;6244075;23;20059;-87
2022/06/18 06:27:56;;;;;;;33.53;5.32;;;;;;;23.83;49.98;100055.63;6244043;23;20032;-86
2022/06/18 06:30:21;;;;;;;897.30;163.13;;;;;;;23.84;50.29;100058.06;6245151;23;20016;-84
2022/06/18 06:32:47;;;;;;;14.60;4.30;;;;;;;23.86;50.14;100057.72;6245896;23;20308;-85
2022/06/18 06:35:13;;;;;;;5.75;3.08;;;;;;;23.90;50.43;100053.88;6244937;23;20008;-85
2022/06/18 06:37:39;;;;;;;10.35;3.75;;;;;;;23.93;50.14;100059.91;6246039;23;20002;-86
2022/06/18 06:40:06;;;;;;;14.82;3.78;;;;;;;23.89;49.88;100060.63;6245250;23;20027;-86
2022/06/18 06:42:42;;;;;;;9.70;4.80;;;;;;;23.98;50.22;100065.25;6245540;23;20004;-86
2022/06/18 06:45:11;;;;;;;12.15;3.80;;;;;;;24.09;50.07;100065.56;6240326;23;20072;-80
2022/06/18 06:47:37;;;;;;;7.88;3.17;;;;;;;23.92;49.67;100066.66;6240927;23;20011;-79
2022/06/18 06:50:02;;;;;;;8.32;3.65;;;;;;;23.99;49.96;100066.88;6214292;23;20082;-79
2022/06/18 06:52:27;;;;;;;10.43;3.30;;;;;;;24.05;49.79;100059.91;6241281;23;20050;-79
2022/06/18 06:57:21;;;;;;;6.43;3.43;;;;;;;24.07;49.80;100062.31;6239956;23;20438;-80
2022/06/18 06:57:42;;;;;;;8.27;3.08;;;;;;;23.97;49.78;100066.41;6241209;23;20019;-79
2022/06/18 07:00:07;;;;;;;8.38;3.50;;;;;;;24.18;49.87;100062.66;6241022;23;20004;-79
2022/06/18 07:02:33;;;;;;;7.05;2.95;;;;;;;24.23;49.90;100056.88;6240002;23;20015;-78
2022/06/18 07:04:58;;;;;;;4.75;2.60;;;;;;;24.30;50.33;100065.47;6240231;23;20000;-78
2022/06/18 07:07:23;;;;;;;12.17;4.70;;;;;;;24.36;50.47;100063.25;6241012;23;20103;-78
2022/06/18 07:09:48;;;;;;;10.43;3.27;;;;;;;24.35;50.35;100064.38;6241563;23;20004;-78
2022/06/18 07:12:14;;;;;;;17.73;3.33;;;;;;;24.42;50.27;100061.00;6240692;23;20613;-79
2022/06/18 07:14:39;;;;;;;10.30;3.83;;;;;;;24.36;50.29;100061.28;6240678;23;20221;-79
2022/06/18 07:17:04;;;;;;;7.90;3.83;;;;;;;24.44;50.03;100064.25;6240248;23;20000;-79
2022/06/18 07:19:29;;;;;;;125.63;16.95;;;;;;;24.54;50.61;100052.63;6241049;23;20083;-79
2022/06/18 07:21:55;;;;;;;13.73;5.10;;;;;;;24.51;50.16;100050.53;6241201;23;20411;-80
2022/06/18 07:24:20;;;;;;;23.63;4.13;;;;;;;24.46;50.23;100045.22;6241134;23;20011;-79
2022/06/18 07:26:46;;;;;;;10.57;4.18;;;;;;;24.57;49.57;100049.13;6213010;23;20007;-80
2022/06/18 07:29:13;;;;;;;13.02;3.05;;;;;;;24.65;49.10;100052.13;6241006;23;20043;-79
2022/06/18 07:31:39;;;;;;;13.75;4.03;;;;;;;24.67;49.53;100042.22;6214280;23;20417;-79
2022/06/18 07:34:06;;;;;;;7.63;2.97;;;;;;;24.77;49.54;100046.50;6214319;23;20007;-79
2022/06/18 07:36:32;;;;;;;9.85;3.33;;;;;;;24.84;49.48;100049.47;6242312;23;20000;-79
2022/06/18 07:38:59;;;;;;;10.65;3.30;;;;;;;24.86;49.74;100045.50;6243106;23;20498;-80
2022/06/18 07:41:32;;;;;;;7.85;3.17;;;;;;;24.82;48.69;100040.66;6242502;23;20134;-80
2022/06/18 07:43:58;;;;;;;6.10;3.15;;;;;;;24.86;48.93;100039.94;6241182;23;20057;-80
2022/06/18 07:46:25;;;;;;;10.32;3.30;;;;;;;24.79;47.86;100038.59;6241592;23;20079;-80
2022/06/18 07:48:50;;;;;;;11.10;3.40;;;;;;;24.91;48.01;100031.31;6243217;23;20004;-79
2022/06/18 07:51:15;;;;;;;8.57;3.67;;;;;;;24.99;48.22;100033.19;6243141;23;20364;-78
2022/06/18 07:53:42;;;;;;;8.33;3.50;;;;;;;25.05;47.82;100028.13;6242690;23;20070;-78
2022/06/18 07:56:08;;;;;;;10.38;3.45;;;;;;;25.09;48.66;100026.25;6241430;23;20048;-78
2022/06/18 07:58:34;;;;;;;8.43;3.78;;;;;;;25.22;48.03;100020.59;6237614;23;20067;-78
2022/06/18 08:01:00;;;;;;;11.70;3.60;;;;;;;25.17;48.00;100005.75;6242125;22;20082;-78
2022/06/18 08:03:26;;;;;;;10.00;4.10;;;;;;;25.23;47.30;100020.25;6242299;22;20414;-78
2022/06/18 08:05:52;;;;;;;17.67;4.72;;;;;;;25.34;47.01;100002.97;6241598;22;20086;-79
2022/06/18 08:08:18;;;;;;;8.57;3.58;;;;;;;25.39;47.43;100005.47;6241148;23;20109;-78
2022/06/18 08:10:47;;;;;;;8.00;3.67;;;;;;;25.51;46.82;100013.75;6242434;23;20523;-78
2022/06/18 08:13:13;;;;;;;10.43;3.60;;;;;;;25.56;46.41;100004.31;6243109;22;20011;-78
2022/06/18 08:15:38;;;;;;;9.23;3.38;;;;;;;25.61;46.85;100004.00;6241491;23;20004;-78
2022/06/18 08:18:04;;;;;;;9.05;4.35;;;;;;;25.72;47.14;100001.50;6243059;22;20008;-79
2022/06/18 08:20:30;;;;;;;8.55;3.80;;;;;;;25.86;46.27;99989.03;6242826;22;20054;-78
2022/06/18 08:22:57;;;;;;;14.02;4.00;;;;;;;25.81;46.74;100000.50;6241226;23;20026;-78
2022/06/18 08:25:26;;;;;;;9.77;4.47;;;;;;;25.89;45.95;99982.75;6241254;22;20007;-79
2022/06/18 08:27:52;;;;;;;10.45;3.40;;;;;;;25.94;45.33;99988.03;6242866;22;20004;-78
2022/06/18 08:30:18;;;;;;;11.23;3.90;;;;;;;25.91;44.85;99985.16;6241872;22;20070;-79
2022/06/18 08:32:44;;;;;;;12.13;4.20;;;;;;;26.04;45.27;99972.69;6242673;22;20075;-78
2022/06/18 08:35:10;;;;;;;6.85;4.20;;;;;;;26.17;44.56;99981.75;6241678;22;20754;-78
2022/06/18 08:37:36;;;;;;;7.18;3.50;;;;;;;26.11;44.81;99983.22;6242357;22;20034;-78
2022/06/18 08:40:34;;;;;;;14.50;3.80;;;;;;;26.23;44.71;99983.06;6242779;22;20079;-78
2022/06/18 08:43:07;;;;;;;17.77;4.88;;;;;;;26.23;44.12;99983.06;6242410;23;20012;-77
2022/06/18 08:46:01;;;;;;;13.77;3.50;;;;;;;26.46;44.39;99984.34;6241297;22;20035;-78
2022/06/18 08:48:38;;;;;;;12.48;4.90;;;;;;;26.65;44.94;99985.47;6242332;22;20494;-79
2022/06/18 08:51:31;;;;;;;9.38;3.67;;;;;;;26.67;43.96;99986.72;6240797;22;20063;-78
2022/06/18 08:54:15;;;;;;;7.90;4.18;;;;;;;26.72;43.47;99979.22;6242004;22;20032;-77
2022/06/18 08:56:46;;;;;;;9.07;3.30;;;;;;;26.81;42.82;99980.59;6240345;22;20093;-78
2022/06/18 08:59:26;;;;;;;9.90;3.95;;;;;;;26.90;42.89;99988.75;6242044;23;20139;-78
2022/06/18 09:02:03;;;;;;;10.50;4.38;;;;;;;26.91;42.22;99978.38;6241766;23;20342;-79
2022/06/18 09:04:43;;;;;;;11.82;4.75;;;;;;;26.97;42.14;99988.06;6242024;23;20035;-78
2022/06/18 09:07:53;;;;;;;14.05;3.65;;;;;;;27.09;42.37;99986.31;6242013;23;20023;-78
2022/06/18 09:10:48;;;;;;;21.08;4.03;;;;;;;27.30;41.76;99982.25;6245209;23;20101;-84
2022/06/18 09:13:22;;;;;;;32.42;4.65;;;;;;;27.35;41.89;99984.72;6242502;23;20004;-86
2022/06/18 09:15:57;;;;;;;13.20;4.55;;;;;;;27.38;41.40;99983.97;6240857;23;20319;-77
2022/06/18 09:18:34;;;;;;;20.67;3.47;;;;;;;27.54;41.80;99981.00;6242058;23;20039;-77
2022/06/18 09:21:04;;;;;;;9.27;3.53;;;;;;;27.56;41.17;99970.25;6241728;23;20007;-78
2022/06/18 09:23:31;;;;;;;9.85;3.20;;;;;;;27.67;41.78;99975.19;6243882;23;20000;-80
2022/06/18 09:25:59;;;;;;;11.00;3.35;;;;;;;27.74;41.37;99972.53;6241543;23;20004;-77
2022/06/18 09:28:35;;;;;;;17.95;4.28;;;;;;;27.90;41.23;99975.16;6214787;23;20012;-77
2022/06/18 09:31:14;;;;;;;8.60;3.55;;;;;;;27.94;41.51;99975.22;6241485;23;20000;-77
2022/06/18 09:33:53;;;;;;;15.13;3.70;;;;;;;28.11;41.64;99967.44;6241160;23;20011;-87
2022/06/18 09:36:22;;;;;;;10.18;3.88;;;;;;;28.27;41.52;99973.63;6242198;23;20003;-77
2022/06/18 09:39:00;;;;;;;19.83;5.35;;;;;;;28.28;42.16;99975.25;6240690;23;20095;-84
2022/06/18 09:41:33;;;;;;;7.63;4.15;;;;;;;28.39;40.99;99977.41;6240873;23;19996;-78
2022/06/18 09:44:23;;;;;;;19.42;3.88;;;;;;;28.41;40.08;99972.22;6244846;23;20004;-78
2022/06/18 09:47:16;;;;;;;11.80;3.20;;;;;;;28.48;40.38;99974.28;6239546;23;20004;-78
2022/06/18 09:49:44;;;;;;;6.88;3.53;;;;;;;28.54;40.71;99978.34;6241010;23;20004;-78
2022/06/18 09:52:33;;;;;;;10.45;3.50;;;;;;;28.71;39.99;99970.50;6241349;23;20349;-77
2022/06/18 09:55:04;;;;;;;11.10;4.20;;;;;;;28.85;40.37;99981.06;6241234;23;20015;-77
2022/06/18 09:57:34;;;;;;;9.50;3.38;;;;;;;29.01;40.24;99978.81;6240186;23;20081;-78
2022/06/18 10:00:08;;;;;;;12.15;4.40;;;;;;;29.06;39.99;99971.28;6240957;23;20003;-78
2022/06/18 10:02:38;;;;;;;10.63;3.97;;;;;;;29.06;38.92;99974.06;6240909;23;20004;-78
2022/06/18 10:07:55;;;;;;;13.25;4.30;;;;;;;29.17;39.34;99977.78;6240849;23;20074;-78
2022/06/18 10:10:25;;;;;;;8.75;3.38;;;;;;;29.25;38.16;99968.22;6240578;23;20026;-78
2022/06/18 10:12:54;;;;;;;13.93;4.13;;;;;;;29.43;38.76;99975.97;6240990;23;20015;-79
2022/06/18 10:15:21;;;;;;;8.50;4.13;;;;;;;29.52;38.23;99972.81;6241316;23;20091;-78
2022/06/18 10:17:53;;;;;;;15.48;4.07;;;;;;;29.60;38.83;99956.81;6242312;23;20008;-83
2022/06/18 10:20:43;;;;;;;12.35;5.07;;;;;;;29.64;38.65;99963.25;6245838;23;20007;-82
2022/06/18 10:23:22;;;;;;;17.98;4.15;;;;;;;29.59;38.26;99972.06;6240883;23;20008;-78
2022/06/18 10:26:06;;;;;;;9.73;3.35;;;;;;;29.74;38.19;99960.97;6240143;23;20000;-78
2022/06/18 10:28:34;;;;;;;10.15;3.47;;;;;;;29.83;37.90;99958.59;6240600;23;20018;-77
2022/06/18 10:31:14;;;;;;;12.18;4.22;;;;;;;29.86;38.16;99966.22;6240770;23;20058;-78
2022/06/18 10:34:00;;;;;;;9.45;3.55;;;;;;;29.87;38.35;99958.59;6240618;23;20362;-78
2022/06/18 10:37:02;;;;;;;16.80;3.40;;;;;;;29.94;38.12;99953.81;6223816;23;20015;-78
2022/06/18 10:39:47;;;;;;;11.60;4.38;;;;;;;30.09;38.25;99953.88;6245289;23;20014;-84
2022/06/18 10:42:40;;;;;;;14.35;6.10;;;;;;;30.13;38.77;99949.09;6245535;23;20004;-87
2022/06/18 10:45:24;;;;;;;11.38;4.28;;;;;;;30.12;38.22;99946.69;6241642;23;20087;-78
2022/06/18 10:47:53;;;;;;;10.38;3.38;;;;;;;30.31;36.38;99937.13;6242358;23;20000;-77
2022/06/18 10:50:20;;;;;;;12.60;3.95;;;;;;;30.40;35.97;99945.19;6239832;23;20012;-78
2022/06/18 10:52:58;;;;;;;11.93;3.45;;;;;;;30.60;36.66;99942.81;6242990;23;20444;-80
2022/06/18 10:55:23;;;;;;;10.50;4.43;;;;;;;30.43;36.54;99935.16;6241148;23;20001;-77
2022/06/18 10:57:50;;;;;;;10.20;3.58;;;;;;;30.30;36.88;99946.78;6239517;23;20008;-84
2022/06/18 11:00:27;;;;;;;9.07;3.15;;;;;;;30.58;37.00;99938.78;6240740;23;20004;-79
2022/06/18 11:02:58;;;;;;;20.45;3.38;;;;;;;30.72;35.29;99938.00;6239924;23;20008;-78
2022/06/18 11:05:32;;;;;;;12.05;3.58;;;;;;;30.74;35.37;99941.22;6239526;23;20004;-78
2022/06/18 11:08:00;;;;;;;10.45;4.13;;;;;;;30.69;36.54;99930.38;6240097;23;20012;-79
2022/06/18 11:10:38;;;;;;;18.85;4.57;;;;;;;30.74;36.43;99929.97;6243459;23;20000;-79
2022/06/18 11:13:16;;;;;;;12.18;3.85;;;;;;;30.92;36.23;99934.84;6242611;23;20023;-78
2022/06/18 11:15:42;;;;;;;13.20;4.35;;;;;;;30.95;36.63;99925.59;6240712;23;20216;-79
2022/06/18 11:18:22;;;;;;;6.75;2.97;;;;;;;31.07;36.55;99913.94;6245610;23;20434;-85
2022/06/18 11:21:04;;;;;;;20.48;5.75;;;;;;;30.89;35.29;99922.38;6244023;23;20004;-78
2022/06/18 11:23:34;;;;;;;12.40;4.50;;;;;;;30.93;34.67;99913.94;6243576;23;20008;-83
2022/06/18 11:25:59;;;;;;;9.30;3.03;;;;;;;31.26;35.59;99919.53;6240863;23;20062;-79
2022/06/18 11:28:41;;;;;;;12.48;3.90;;;;;;;31.09;35.45;99913.53;6242286;23;20000;-78
2022/06/18 11:31:09;;;;;;;12.10;4.18;;;;;;;31.28;35.40;99917.94;6242386;23;20057;-78
2022/06/18 11:33:41;;;;;;;7.20;3.58;;;;;;;31.52;35.14;99914.69;6242419;23;20008;-78
2022/06/18 11:36:14;;;;;;;13.45;4.65;;;;;;;31.38;34.68;99910.69;6240886;23;20007;-78
2022/06/18 11:38:49;;;;;;;13.50;3.47;;;;;;;31.51;35.75;99908.25;6242068;23;20056;-78
2022/06/18 11:41:31;;;;;;;12.25;3.30;;;;;;;31.66;33.73;99900.56;6241545;23;20092;-79
2022/06/18 11:44:04;;;;;;;11.30;4.75;;;;;;;31.65;33.58;99898.16;6242272;23;20031;-78
2022/06/18 11:46:39;;;;;;;11.55;3.53;;;;;;;31.76;33.79;99907.38;6241210;23;20083;-78
2022/06/18 11:49:21;;;;;;;16.85;3.72;;;;;;;31.76;33.77;99898.09;6242209;23;20547;-78
2022/06/18 11:51:46;;;;;;;9.85;3.80;;;;;;;31.88;32.97;99897.66;6244417;23;20065;-79